Time;durP1;ratioP1;P1;durP2;ratioP2;P2;SDS_P1;SDS_P2;PMS_P1;PMS_P2;Temp;Humidity;BMP_temperature;BMP_pressure;BME280_temperature;BME280_humidity;BME280_pressure;Samples;Min_cycle;Max_cycle;Signal;HPM_P1;HPM_P2
2021/09/29 00:01:57;;;;;;;4.55;0.40;;;;;;;;;;5076094;28;20036;-65
2021/09/29 00:04:23;;;;;;;1.83;0.45;;;;;;;;;;5074958;28;20040;-62
2021/09/29 00:06:49;;;;;;;0.93;0.30;;;;;;;;;;5074258;28;20040;-63
2021/09/29 00:09:14;;;;;;;3.47;0.43;;;;;;;;;;5072298;28;20894;-63
2021/09/29 00:11:40;;;;;;;4.40;0.50;;;;;;;;;;5072347;28;20048;-63
2021/09/29 00:14:06;;;;;;;1.05;0.40;;;;;;;;;;5071361;28;20047;-63
2021/09/29 00:16:32;;;;;;;3.58;0.77;;;;;;;;;;5052175;28;20032;-63
2021/09/29 00:18:58;;;;;;;4.80;0.60;;;;;;;;;;5063303;28;20480;-64
2021/09/29 00:21:24;;;;;;;0.57;0.28;;;;;;;;;;5071347;28;20125;-63
2021/09/29 00:23:49;;;;;;;4.10;0.65;;;;;;;;;;5072004;28;20040;-63
2021/09/29 00:26:15;;;;;;;2.70;0.70;;;;;;;;;;5071757;28;20117;-63
2021/09/29 00:28:42;;;;;;;4.43;0.60;;;;;;;;;;5070316;28;20032;-66
2021/09/29 00:31:22;;;;;;;4.55;0.47;;;;;;;;;;5059276;28;20159;-64
2021/09/29 00:33:50;;;;;;;4.15;0.50;;;;;;;;;;5072272;28;20048;-66
2021/09/29 00:36:16;;;;;;;1.55;0.50;;;;;;;;;;5071693;28;20043;-64
2021/09/29 00:38:42;;;;;;;2.65;0.45;;;;;;;;;;5050459;28;20643;-64
2021/09/29 00:41:08;;;;;;;1.75;0.52;;;;;;;;;;5074679;28;20047;-63
2021/09/29 00:43:33;;;;;;;1.77;0.50;;;;;;;;;;5070775;28;20063;-62
2021/09/29 00:45:59;;;;;;;2.45;0.45;;;;;;;;;;5073502;28;20043;-64
2021/09/29 00:48:25;;;;;;;2.78;0.40;;;;;;;;;;5051722;28;20032;-63
2021/09/29 00:50:56;;;;;;;3.53;0.45;;;;;;;;;;5071169;28;20400;-63
2021/09/29 00:53:22;;;;;;;0.93;0.40;;;;;;;;;;5067685;28;20033;-63
2021/09/29 00:55:48;;;;;;;1.60;0.50;;;;;;;;;;5070100;28;20036;-63
2021/09/29 00:58:14;;;;;;;5.53;0.50;;;;;;;;;;5050927;28;20040;-63
2021/09/29 01:00:41;;;;;;;4.78;0.65;;;;;;;;;;5057232;28;20091;-62
2021/09/29 01:03:07;;;;;;;12.68;0.70;;;;;;;;;;5068823;28;20044;-63
2021/09/29 01:05:35;;;;;;;4.57;0.63;;;;;;;;;;5071685;28;20032;-63
2021/09/29 01:08:08;;;;;;;4.63;0.60;;;;;;;;;;5071033;28;20040;-64
2021/09/29 01:10:43;;;;;;;7.60;0.50;;;;;;;;;;5071541;28;20044;-63
2021/09/29 01:13:20;;;;;;;4.10;0.50;;;;;;;;;;5068792;28;20508;-62
2021/09/29 01:15:47;;;;;;;5.05;0.70;;;;;;;;;;5069346;28;20055;-62
2021/09/29 01:18:14;;;;;;;9.02;0.70;;;;;;;;;;5042810;28;20028;-63
2021/09/29 01:20:52;;;;;;;1.95;0.50;;;;;;;;;;5058862;28;20090;-63
2021/09/29 01:23:36;;;;;;;5.25;0.60;;;;;;;;;;5069241;28;20135;-62
2021/09/29 01:26:13;;;;;;;4.25;0.70;;;;;;;;;;5068425;28;20056;-63
2021/09/29 01:28:42;;;;;;;4.38;0.45;;;;;;;;;;5069076;28;20048;-61
2021/09/29 01:31:08;;;;;;;1.77;0.50;;;;;;;;;;5034765;28;20044;-64
2021/09/29 01:33:34;;;;;;;2.33;0.50;;;;;;;;;;5067519;28;20147;-63
2021/09/29 01:36:00;;;;;;;1.63;0.57;;;;;;;;;;5072306;28;20299;-62
2021/09/29 01:38:26;;;;;;;1.88;0.50;;;;;;;;;;5061649;28;20060;-64
2021/09/29 01:40:52;;;;;;;4.22;0.80;;;;;;;;;;5052694;28;20064;-62
2021/09/29 01:43:19;;;;;;;1.70;0.50;;;;;;;;;;5046442;28;20125;-62
2021/09/29 01:45:46;;;;;;;1.90;0.40;;;;;;;;;;5051886;28;20512;-64
2021/09/29 01:48:12;;;;;;;1.73;0.50;;;;;;;;;;5050816;28;20446;-61
2021/09/29 01:50:39;;;;;;;1.83;0.60;;;;;;;;;;5047503;28;20382;-62
2021/09/29 01:53:07;;;;;;;1.20;0.40;;;;;;;;;;5057483;28;20036;-62
2021/09/29 01:55:33;;;;;;;1.83;0.50;;;;;;;;;;5069330;28;20044;-62
2021/09/29 01:57:59;;;;;;;7.90;0.65;;;;;;;;;;5074490;28;20409;-61
2021/09/29 02:00:27;;;;;;;11.05;0.80;;;;;;;;;;5073262;28;20048;-61
2021/09/29 02:02:55;;;;;;;6.30;0.70;;;;;;;;;;5070441;28;20842;-62
2021/09/29 02:05:29;;;;;;;2.58;0.60;;;;;;;;;;5069350;28;20031;-60
2021/09/29 02:07:55;;;;;;;3.17;0.70;;;;;;;;;;5073468;28;20066;-62
2021/09/29 02:10:21;;;;;;;1.98;0.50;;;;;;;;;;5073920;28;20067;-63
2021/09/29 02:12:47;;;;;;;1.50;0.50;;;;;;;;;;5082168;28;20078;-64
2021/09/29 02:15:13;;;;;;;0.68;0.32;;;;;;;;;;5057672;28;20043;-64
2021/09/29 02:17:39;;;;;;;3.30;0.65;;;;;;;;;;5074645;28;20099;-62
2021/09/29 02:20:05;;;;;;;2.25;0.55;;;;;;;;;;5074713;28;20086;-63
2021/09/29 02:22:31;;;;;;;6.45;0.60;;;;;;;;;;5070110;28;20032;-62
2021/09/29 02:24:57;;;;;;;5.28;0.50;;;;;;;;;;5070907;28;20040;-65
2021/09/29 02:27:23;;;;;;;2.85;0.77;;;;;;;;;;5074259;28;20032;-64
2021/09/29 02:29:49;;;;;;;1.63;0.50;;;;;;;;;;5075387;28;20048;-62
2021/09/29 02:32:15;;;;;;;2.47;0.50;;;;;;;;;;5058543;28;20059;-63
2021/09/29 02:34:40;;;;;;;4.85;0.70;;;;;;;;;;5069906;28;20032;-62
2021/09/29 02:37:06;;;;;;;3.65;0.50;;;;;;;;;;5070607;28;20037;-62
2021/09/29 02:39:32;;;;;;;4.50;0.60;;;;;;;;;;5069067;28;20842;-63
2021/09/29 02:41:58;;;;;;;4.32;0.77;;;;;;;;;;5070180;28;20045;-63
2021/09/29 02:44:24;;;;;;;3.00;0.55;;;;;;;;;;5070512;28;20051;-61
2021/09/29 02:46:50;;;;;;;1.17;0.50;;;;;;;;;;5071660;28;20024;-61
2021/09/29 02:49:16;;;;;;;1.00;0.40;;;;;;;;;;5071442;28;20032;-60
2021/09/29 02:51:42;;;;;;;4.40;1.45;;;;;;;;;;5069206;28;20047;-63
2021/09/29 02:54:08;;;;;;;2.40;0.50;;;;;;;;;;5070080;28;20063;-61
2021/09/29 02:56:34;;;;;;;0.95;0.40;;;;;;;;;;5068988;28;20137;-59
2021/09/29 02:59:00;;;;;;;0.68;0.40;;;;;;;;;;5056551;28;20044;-61
2021/09/29 03:01:25;;;;;;;0.70;0.30;;;;;;;;;;5077363;28;20043;-64
2021/09/29 03:03:51;;;;;;;1.83;0.57;;;;;;;;;;5074033;28;20143;-62
2021/09/29 03:06:17;;;;;;;2.42;0.40;;;;;;;;;;5075537;28;20164;-57
2021/09/29 03:08:43;;;;;;;1.73;0.50;;;;;;;;;;5053941;28;20040;-58
2021/09/29 03:11:10;;;;;;;1.83;0.50;;;;;;;;;;5075177;28;20919;-61
2021/09/29 03:13:36;;;;;;;1.05;0.40;;;;;;;;;;5069188;28;20040;-61
2021/09/29 03:16:02;;;;;;;0.82;0.40;;;;;;;;;;5046784;28;20522;-60
2021/09/29 03:18:28;;;;;;;1.50;0.40;;;;;;;;;;5056293;28;20106;-61
2021/09/29 03:20:54;;;;;;;0.88;0.40;;;;;;;;;;5054148;28;20770;-62
2021/09/29 03:23:20;;;;;;;0.98;0.40;;;;;;;;;;5069961;28;20044;-60
2021/09/29 03:25:46;;;;;;;1.55;0.40;;;;;;;;;;5075398;28;20405;-61
2021/09/29 03:28:12;;;;;;;1.95;0.60;;;;;;;;;;5075672;28;20037;-63
2021/09/29 03:30:38;;;;;;;0.57;0.30;;;;;;;;;;5074002;28;20036;-60
2021/09/29 03:33:07;;;;;;;1.13;0.40;;;;;;;;;;5074347;28;20044;-61
2021/09/29 03:35:35;;;;;;;1.15;0.40;;;;;;;;;;5071323;28;20830;-62
2021/09/29 03:38:02;;;;;;;0.65;0.32;;;;;;;;;;5072000;28;20546;-62
2021/09/29 03:40:28;;;;;;;0.63;0.30;;;;;;;;;;5075235;28;20153;-62
2021/09/29 03:42:54;;;;;;;1.13;0.40;;;;;;;;;;5073964;28;20089;-62
2021/09/29 03:45:20;;;;;;;0.88;0.40;;;;;;;;;;5073037;28;20550;-62
2021/09/29 03:47:47;;;;;;;1.27;0.50;;;;;;;;;;5074422;28;20485;-66
2021/09/29 03:50:13;;;;;;;0.47;0.30;;;;;;;;;;5078315;28;20731;-62
2021/09/29 03:52:39;;;;;;;1.15;0.43;;;;;;;;;;5077473;28;20048;-64
2021/09/29 03:55:05;;;;;;;2.97;0.60;;;;;;;;;;5063082;28;20043;-64
2021/09/29 03:57:31;;;;;;;1.08;0.40;;;;;;;;;;5080219;28;20040;-63
2021/09/29 03:59:57;;;;;;;1.25;0.40;;;;;;;;;;5080376;28;20429;-63
2021/09/29 04:02:23;;;;;;;3.33;0.40;;;;;;;;;;5068009;28;20036;-62
2021/09/29 04:04:49;;;;;;;1.02;0.50;;;;;;;;;;5060938;28;20752;-63
2021/09/29 04:07:15;;;;;;;1.42;0.40;;;;;;;;;;5062399;28;20685;-62
2021/09/29 04:09:40;;;;;;;1.48;0.43;;;;;;;;;;5042688;28;20145;-62
2021/09/29 04:12:07;;;;;;;1.38;0.50;;;;;;;;;;5072367;28;20041;-66
2021/09/29 04:14:33;;;;;;;0.30;0.30;;;;;;;;;;5074444;28;20067;-63
2021/09/29 04:16:59;;;;;;;2.50;0.50;;;;;;;;;;5078299;28;20043;-63
2021/09/29 04:19:25;;;;;;;1.67;0.52;;;;;;;;;;5066492;28;20044;-62
2021/09/29 04:21:51;;;;;;;2.50;0.52;;;;;;;;;;5056133;28;20037;-65
2021/09/29 04:24:16;;;;;;;1.48;0.50;;;;;;;;;;5075062;28;20040;-63
2021/09/29 04:26:42;;;;;;;0.75;0.40;;;;;;;;;;5074159;28;20047;-63
2021/09/29 04:29:08;;;;;;;1.95;0.60;;;;;;;;;;5076871;28;20052;-61
2021/09/29 04:31:34;;;;;;;1.17;0.40;;;;;;;;;;5056580;28;20029;-63
2021/09/29 04:34:00;;;;;;;1.27;0.50;;;;;;;;;;5063492;28;20040;-63
2021/09/29 04:36:26;;;;;;;1.10;0.40;;;;;;;;;;5074233;28;20051;-64
2021/09/29 04:38:52;;;;;;;1.10;0.35;;;;;;;;;;5079032;28;20062;-63
2021/09/29 04:41:18;;;;;;;2.55;0.43;;;;;;;;;;5073599;28;20746;-63
2021/09/29 04:43:44;;;;;;;1.17;0.40;;;;;;;;;;5073655;28;20055;-63
2021/09/29 04:46:09;;;;;;;0.93;0.40;;;;;;;;;;5056827;28;20036;-62
2021/09/29 04:48:35;;;;;;;0.47;0.30;;;;;;;;;;5072262;28;20068;-62
2021/09/29 04:51:01;;;;;;;1.75;0.50;;;;;;;;;;5073130;28;20048;-63
2021/09/29 04:53:27;;;;;;;0.40;0.30;;;;;;;;;;5072854;28;20032;-63
2021/09/29 04:55:55;;;;;;;0.82;0.40;;;;;;;;;;5072455;28;20090;-62
2021/09/29 04:58:21;;;;;;;0.47;0.30;;;;;;;;;;5069780;28;20419;-64
2021/09/29 05:00:47;;;;;;;0.38;0.30;;;;;;;;;;5072346;28;20055;-63
2021/09/29 05:03:13;;;;;;;1.58;0.40;;;;;;;;;;5071870;28;20510;-64
2021/09/29 05:05:38;;;;;;;2.33;0.50;;;;;;;;;;5072065;28;20076;-64
2021/09/29 05:08:06;;;;;;;0.68;0.38;;;;;;;;;;5071821;28;20033;-62
2021/09/29 05:10:55;;;;;;;1.55;0.50;;;;;;;;;;5074031;28;20056;-61
2021/09/29 05:13:25;;;;;;;1.02;0.40;;;;;;;;;;5069763;28;20423;-62
2021/09/29 05:15:51;;;;;;;0.65;0.32;;;;;;;;;;5072470;28;20039;-63
2021/09/29 05:18:16;;;;;;;1.33;0.40;;;;;;;;;;5075950;28;20046;-63
2021/09/29 05:20:43;;;;;;;1.05;0.45;;;;;;;;;;5074669;28;20097;-63
2021/09/29 05:23:08;;;;;;;1.02;0.40;;;;;;;;;;5071619;28;20040;-63
2021/09/29 05:25:34;;;;;;;1.63;0.50;;;;;;;;;;5076557;28;20449;-63
2021/09/29 05:28:01;;;;;;;0.25;0.25;;;;;;;;;;5082039;28;20036;-62
2021/09/29 05:30:26;;;;;;;0.68;0.40;;;;;;;;;;5070787;28;20036;-63
2021/09/29 05:32:52;;;;;;;0.57;0.30;;;;;;;;;;5068867;28;20581;-63
2021/09/29 05:35:18;;;;;;;0.30;0.30;;;;;;;;;;5078568;28;20871;-63
2021/09/29 05:37:44;;;;;;;0.77;0.30;;;;;;;;;;5079222;28;20054;-64
2021/09/29 05:40:10;;;;;;;0.80;0.38;;;;;;;;;;5078650;28;20055;-63
2021/09/29 05:42:36;;;;;;;0.30;0.30;;;;;;;;;;5077489;28;20036;-63
2021/09/29 05:45:02;;;;;;;0.88;0.43;;;;;;;;;;5059433;28;20048;-63
2021/09/29 05:47:28;;;;;;;0.60;0.40;;;;;;;;;;5056319;28;20042;-63
2021/09/29 05:49:54;;;;;;;0.40;0.30;;;;;;;;;;5075478;28;20040;-63
2021/09/29 05:52:20;;;;;;;1.08;0.32;;;;;;;;;;5074323;28;20043;-62
2021/09/29 05:54:46;;;;;;;0.40;0.30;;;;;;;;;;5075286;28;20028;-62
2021/09/29 05:57:13;;;;;;;0.85;0.38;;;;;;;;;;5073693;28;20077;-63
2021/09/29 05:59:39;;;;;;;0.30;0.30;;;;;;;;;;5071820;28;20048;-63
2021/09/29 06:02:06;;;;;;;0.80;0.40;;;;;;;;;;5072254;28;20036;-63
2021/09/29 06:04:32;;;;;;;0.90;0.30;;;;;;;;;;5073287;28;20849;-64
2021/09/29 06:06:59;;;;;;;0.75;0.30;;;;;;;;;;5053049;28;20572;-64
2021/09/29 06:09:25;;;;;;;1.73;0.50;;;;;;;;;;5069278;28;20040;-63
2021/09/29 06:11:51;;;;;;;2.67;0.40;;;;;;;;;;5068712;28;20047;-63
2021/09/29 06:14:17;;;;;;;0.60;0.30;;;;;;;;;;5070105;28;20067;-63
2021/09/29 06:16:47;;;;;;;0.43;0.30;;;;;;;;;;5071570;28;20048;-63
2021/09/29 06:19:17;;;;;;;0.93;0.30;;;;;;;;;;5072809;28;20454;-62
2021/09/29 06:21:44;;;;;;;2.00;0.50;;;;;;;;;;5070445;28;20185;-63
2021/09/29 06:24:15;;;;;;;1.08;0.32;;;;;;;;;;5071997;28;20064;-62
2021/09/29 06:26:41;;;;;;;1.05;0.40;;;;;;;;;;5068762;28;20044;-62
2021/09/29 06:29:07;;;;;;;1.17;0.40;;;;;;;;;;5071994;28;20060;-62
2021/09/29 06:31:32;;;;;;;1.00;0.40;;;;;;;;;;5070981;28;20033;-62
2021/09/29 06:33:59;;;;;;;2.78;0.40;;;;;;;;;;5072902;28;20051;-62
2021/09/29 06:36:25;;;;;;;0.70;0.40;;;;;;;;;;5073105;28;20043;-62
2021/09/29 06:38:50;;;;;;;0.93;0.40;;;;;;;;;;5076589;28;20024;-62
2021/09/29 06:41:16;;;;;;;1.45;0.40;;;;;;;;;;5073106;28;20040;-62
2021/09/29 06:43:42;;;;;;;1.25;0.40;;;;;;;;;;5072743;28;20491;-61
2021/09/29 06:46:08;;;;;;;1.25;0.50;;;;;;;;;;5075452;28;20040;-63
2021/09/29 06:48:34;;;;;;;0.68;0.40;;;;;;;;;;5071388;28;20037;-63
2021/09/29 06:51:00;;;;;;;1.20;0.40;;;;;;;;;;5073716;28;20036;-62
2021/09/29 06:53:26;;;;;;;0.85;0.40;;;;;;;;;;5074602;28;21952;-60
2021/09/29 06:55:51;;;;;;;1.30;0.50;;;;;;;;;;5057146;28;20047;-58
2021/09/29 06:58:18;;;;;;;1.45;0.50;;;;;;;;;;5055515;28;20040;-63
2021/09/29 07:00:43;;;;;;;6.60;0.55;;;;;;;;;;5074837;28;20048;-60
2021/09/29 07:03:12;;;;;;;1.23;0.50;;;;;;;;;;5071610;28;20032;-61
2021/09/29 07:05:38;;;;;;;1.20;0.50;;;;;;;;;;5071656;28;20249;-58
2021/09/29 07:08:04;;;;;;;2.13;0.60;;;;;;;;;;5073890;28;20111;-61
2021/09/29 07:10:31;;;;;;;2.38;0.60;;;;;;;;;;5073439;28;20036;-61
2021/09/29 07:12:58;;;;;;;2.10;0.60;;;;;;;;;;5073815;28;20047;-61
2021/09/29 07:15:24;;;;;;;2.33;0.63;;;;;;;;;;5072595;28;20579;-62
2021/09/29 07:17:56;;;;;;;1.52;0.60;;;;;;;;;;5055724;28;20093;-62
2021/09/29 07:20:21;;;;;;;1.88;0.65;;;;;;;;;;5071339;28;20059;-62
2021/09/29 07:22:47;;;;;;;0.63;0.40;;;;;;;;;;5071692;28;20027;-61
2021/09/29 07:25:13;;;;;;;4.47;0.60;;;;;;;;;;5074020;28;20047;-62
2021/09/29 07:27:39;;;;;;;1.58;0.50;;;;;;;;;;5073036;28;20412;-63
2021/09/29 07:30:05;;;;;;;4.85;0.70;;;;;;;;;;5074808;28;20376;-63
2021/09/29 07:32:31;;;;;;;7.03;1.10;;;;;;;;;;5057093;28;20040;-62
2021/09/29 07:34:57;;;;;;;3.58;0.57;;;;;;;;;;5071566;28;20042;-61
2021/09/29 07:37:23;;;;;;;1.15;0.38;;;;;;;;;;5070222;28;20060;-62
2021/09/29 07:39:50;;;;;;;1.48;0.50;;;;;;;;;;5072759;28;20078;-63
2021/09/29 07:42:16;;;;;;;2.53;0.50;;;;;;;;;;5072260;28;20085;-62
2021/09/29 07:44:42;;;;;;;1.23;0.40;;;;;;;;;;5067865;28;20061;-63
2021/09/29 07:47:08;;;;;;;2.30;0.70;;;;;;;;;;5072789;28;20071;-61
2021/09/29 07:49:34;;;;;;;2.25;0.50;;;;;;;;;;5075095;28;20135;-61
2021/09/29 07:52:00;;;;;;;1.45;0.57;;;;;;;;;;5073537;28;20044;-63
2021/09/29 07:54:26;;;;;;;1.42;0.47;;;;;;;;;;5073946;28;20133;-64
2021/09/29 07:56:53;;;;;;;0.77;0.40;;;;;;;;;;5053644;28;20129;-63
2021/09/29 07:59:19;;;;;;;1.35;0.50;;;;;;;;;;5073367;28;20107;-63
2021/09/29 08:01:45;;;;;;;1.10;0.40;;;;;;;;;;5075012;28;20142;-63
2021/09/29 08:04:10;;;;;;;0.95;0.40;;;;;;;;;;5078437;28;20036;-63
2021/09/29 08:06:36;;;;;;;0.95;0.40;;;;;;;;;;5075283;28;20036;-63
2021/09/29 08:09:03;;;;;;;1.17;0.47;;;;;;;;;;5077713;28;20123;-63
2021/09/29 08:11:29;;;;;;;2.40;0.60;;;;;;;;;;5074162;28;20642;-63
2021/09/29 08:13:55;;;;;;;1.25;0.50;;;;;;;;;;5078054;28;20048;-62
2021/09/29 08:16:21;;;;;;;0.80;0.40;;;;;;;;;;5076866;28;20028;-62
2021/09/29 08:18:46;;;;;;;1.02;0.40;;;;;;;;;;5076754;28;20040;-62
2021/09/29 08:21:18;;;;;;;2.63;0.50;;;;;;;;;;5075243;28;20024;-63
2021/09/29 08:23:48;;;;;;;1.73;0.50;;;;;;;;;;5055215;28;20046;-62
2021/09/29 08:31:43;;;;;;;1.05;0.40;;;;;;;;;;5071394;28;20051;-63
2021/09/29 08:34:18;;;;;;;4.72;0.60;;;;;;;;;;5073409;28;20139;-62
2021/09/29 08:39:26;;;;;;;2.72;0.60;;;;;;;;;;5076630;28;20102;-63
2021/09/29 08:42:08;;;;;;;2.60;0.60;;;;;;;;;;5056723;28;20048;-62
2021/09/29 09:16:31;;;;;;;2.92;0.50;;;;;;;;;;5071416;28;20048;-63
2021/09/29 09:18:58;;;;;;;1.20;0.52;;;;;;;;;;5071243;28;20075;-62
2021/09/29 09:21:24;;;;;;;0.75;0.35;;;;;;;;;;5071842;28;20045;-62
2021/09/29 09:23:50;;;;;;;2.22;0.60;;;;;;;;;;5070226;28;20051;-61
2021/09/29 09:26:20;;;;;;;1.13;0.43;;;;;;;;;;5071825;28;20517;-62
2021/09/29 09:28:46;;;;;;;1.13;0.40;;;;;;;;;;5070982;28;20037;-63
2021/09/29 09:31:14;;;;;;;1.65;0.57;;;;;;;;;;5069858;28;20302;-62
2021/09/29 09:33:46;;;;;;;2.10;0.50;;;;;;;;;;5069138;28;20029;-63
2021/09/29 09:36:12;;;;;;;1.88;0.60;;;;;;;;;;5071126;28;20040;-62
2021/09/29 09:38:41;;;;;;;4.03;0.55;;;;;;;;;;5070202;28;20120;-61
2021/09/29 09:41:07;;;;;;;1.45;0.50;;;;;;;;;;5068994;28;20063;-61
2021/09/29 09:43:33;;;;;;;1.77;0.50;;;;;;;;;;5070715;28;20045;-61
2021/09/29 09:46:02;;;;;;;4.15;0.60;;;;;;;;;;5070134;28;20040;-62
2021/09/29 09:48:29;;;;;;;1.80;0.60;;;;;;;;;;5068178;28;20035;-62
2021/09/29 09:51:15;;;;;;;2.53;0.50;;;;;;;;;;5036906;28;20575;-62
2021/09/29 09:53:51;;;;;;;1.63;0.52;;;;;;;;;;5045936;28;20033;-62
2021/09/29 09:56:24;;;;;;;1.25;0.40;;;;;;;;;;5045967;28;20093;-62
2021/09/29 09:58:51;;;;;;;2.08;0.60;;;;;;;;;;5046466;28;20045;-65
2021/09/29 10:01:20;;;;;;;1.55;0.50;;;;;;;;;;5046058;28;20462;-63
2021/09/29 10:03:47;;;;;;;1.73;0.50;;;;;;;;;;5046191;28;20052;-61
2021/09/29 10:06:13;;;;;;;2.63;0.70;;;;;;;;;;5046038;28;20048;-60
2021/09/29 10:08:42;;;;;;;5.50;0.60;;;;;;;;;;5045933;28;20061;-61
2021/09/29 10:11:18;;;;;;;1.67;0.50;;;;;;;;;;5045950;28;20045;-62
2021/09/29 10:27:16;;;;;;;1.90;0.70;;;;;;;;;;5047581;28;20041;-61
2021/09/29 10:29:48;;;;;;;1.88;0.50;;;;;;;;;;5065795;28;20063;-62
2021/09/29 10:34:59;;;;;;;1.42;0.50;;;;;;;;;;5070155;28;20037;-62
2021/09/29 10:37:50;;;;;;;3.65;0.60;;;;;;;;;;5053469;28;20105;-64
2021/09/29 10:40:33;;;;;;;1.50;0.60;;;;;;;;;;5069003;28;20071;-63
2021/09/29 10:43:05;;;;;;;1.77;0.50;;;;;;;;;;5070880;28;20037;-63
2021/09/29 10:48:26;;;;;;;1.80;0.60;;;;;;;;;;5069482;28;20060;-63
2021/09/29 11:05:16;;;;;;;1.83;0.50;;;;;;;;;;5070484;28;20047;-62
2021/09/29 11:29:48;;;;;;;1.13;0.50;;;;;;;;;;5074318;28;20089;-63
2021/09/29 11:32:43;;;;;;;3.70;0.60;;;;;;;;;;5077095;28;20469;-62
2021/09/29 11:35:20;;;;;;;1.50;0.45;;;;;;;;;;5078283;28;20050;-62
2021/09/29 11:38:13;;;;;;;1.63;0.50;;;;;;;;;;5077825;28;20610;-63
2021/09/29 12:08:56;;;;;;;1.95;0.60;;;;;;;;;;5071273;28;20048;-62
2021/09/29 12:11:19;;;;;;;1.92;0.57;;;;;;;;;;5069647;28;20076;-59
2021/09/29 12:13:57;;;;;;;1.90;0.60;;;;;;;;;;5072713;28;20044;-60
2021/09/29 12:16:30;;;;;;;1.30;0.43;;;;;;;;;;5071864;28;20052;-60
2021/09/29 12:18:57;;;;;;;1.77;0.60;;;;;;;;;;5072483;28;20408;-62
2021/09/29 12:21:38;;;;;;;1.70;0.55;;;;;;;;;;5069930;28;20481;-62
2021/09/29 12:24:07;;;;;;;2.42;0.70;;;;;;;;;;5071426;28;20120;-60
2021/09/29 12:26:48;;;;;;;1.85;0.57;;;;;;;;;;5071757;28;20189;-59
2021/09/29 12:29:18;;;;;;;1.48;0.40;;;;;;;;;;5072908;28;20033;-61
2021/09/29 12:34:44;;;;;;;1.63;0.52;;;;;;;;;;5074259;28;20637;-62
2021/09/29 12:37:10;;;;;;;4.25;0.90;;;;;;;;;;5073515;28;20102;-61
2021/09/29 12:39:38;;;;;;;1.95;0.65;;;;;;;;;;5073171;28;20122;-63
2021/09/29 12:42:04;;;;;;;3.30;0.68;;;;;;;;;;5077375;28;20040;-60
2021/09/29 12:44:30;;;;;;;2.20;0.70;;;;;;;;;;5074014;28;20563;-60
2021/09/29 12:47:09;;;;;;;1.98;0.70;;;;;;;;;;5075483;28;20532;-59
2021/09/29 12:49:35;;;;;;;3.55;0.70;;;;;;;;;;5072227;28;20531;-61
2021/09/29 12:52:10;;;;;;;2.85;0.70;;;;;;;;;;5074737;28;20052;-61
2021/09/29 12:54:43;;;;;;;2.83;0.80;;;;;;;;;;5071963;28;20162;-61
2021/09/29 12:57:09;;;;;;;5.78;0.68;;;;;;;;;;5072213;28;20051;-61
2021/09/29 12:59:35;;;;;;;2.15;0.70;;;;;;;;;;5073130;28;20044;-61
2021/09/29 13:02:01;;;;;;;9.85;0.60;;;;;;;;;;5072831;28;20092;-57
2021/09/29 13:04:28;;;;;;;3.08;0.55;;;;;;;;;;5072859;28;20686;-62
2021/09/29 13:06:53;;;;;;;1.63;0.60;;;;;;;;;;5079034;28;20071;-61
2021/09/29 13:09:19;;;;;;;7.05;1.25;;;;;;;;;;5078288;28;20075;-63
2021/09/29 13:11:45;;;;;;;1.50;0.50;;;;;;;;;;5064420;28;20456;-63
2021/09/29 13:14:11;;;;;;;2.25;0.63;;;;;;;;;;5079046;28;20047;-64
2021/09/29 13:16:37;;;;;;;1.85;0.60;;;;;;;;;;5078680;28;20028;-60
2021/09/29 13:19:09;;;;;;;3.97;0.70;;;;;;;;;;5074418;28;20383;-64
2021/09/29 13:21:40;;;;;;;6.88;0.77;;;;;;;;;;5049504;28;20040;-62
2021/09/29 13:24:21;;;;;;;2.40;0.60;;;;;;;;;;5072714;28;20040;-63
2021/09/29 13:37:30;;;;;;;2.53;0.70;;;;;;;;;;5074039;28;20732;-64
2021/09/29 13:39:56;;;;;;;2.83;0.63;;;;;;;;;;5069800;28;20044;-64
2021/09/29 13:42:22;;;;;;;1.67;0.60;;;;;;;;;;5051962;28;20044;-64
2021/09/29 13:44:47;;;;;;;5.80;0.68;;;;;;;;;;5072275;28;20086;-63
2021/09/29 13:47:13;;;;;;;4.15;0.82;;;;;;;;;;5069956;28;20047;-62
2021/09/29 13:49:39;;;;;;;4.00;0.80;;;;;;;;;;5069429;28;20043;-63
2021/09/29 13:52:08;;;;;;;1.83;0.70;;;;;;;;;;5071787;28;20036;-64
2021/09/29 13:54:36;;;;;;;6.90;0.80;;;;;;;;;;5069377;28;20473;-64
2021/09/29 13:57:13;;;;;;;2.22;0.63;;;;;;;;;;5070499;28;20110;-63
2021/09/29 14:00:05;;;;;;;2.22;0.68;;;;;;;;;;5069086;28;20044;-64
2021/09/29 14:29:38;;;;;;;1.38;0.60;;;;;;;;;;5069425;28;20126;-65
2021/09/29 14:32:07;;;;;;;2.00;0.50;;;;;;;;;;5071851;28;20405;-64
2021/09/29 14:34:33;;;;;;;1.95;0.68;;;;;;;;;;5076891;28;20051;-64
2021/09/29 14:37:01;;;;;;;1.95;0.55;;;;;;;;;;5072031;28;20040;-63
2021/09/29 14:39:27;;;;;;;2.10;0.60;;;;;;;;;;5074202;28;20040;-65
2021/09/29 14:41:53;;;;;;;4.60;0.73;;;;;;;;;;5054430;28;20119;-64
2021/09/29 14:44:19;;;;;;;4.10;0.57;;;;;;;;;;5068884;28;20155;-65
2021/09/29 14:46:45;;;;;;;6.03;0.70;;;;;;;;;;5070792;28;20041;-64
2021/09/29 14:49:11;;;;;;;1.15;0.43;;;;;;;;;;5069553;28;20043;-64
2021/09/29 14:51:37;;;;;;;1.52;0.50;;;;;;;;;;5072188;28;20101;-66
2021/09/29 14:54:04;;;;;;;2.00;0.60;;;;;;;;;;5073120;28;20085;-64
2021/09/29 14:56:29;;;;;;;2.05;0.63;;;;;;;;;;5075993;28;20036;-66
2021/09/29 14:59:15;;;;;;;5.78;0.80;;;;;;;;;;5015031;28;20045;-66
2021/09/29 15:01:41;;;;;;;1.67;0.50;;;;;;;;;;5013860;28;20352;-65
2021/09/29 15:04:07;;;;;;;2.50;0.60;;;;;;;;;;5015020;28;20429;-63
2021/09/29 15:06:33;;;;;;;2.35;0.63;;;;;;;;;;5015133;28;20086;-65
2021/09/29 15:08:59;;;;;;;3.80;0.68;;;;;;;;;;5014060;28;20076;-65
2021/09/29 15:11:25;;;;;;;2.15;0.70;;;;;;;;;;5014600;28;20077;-65
2021/09/29 15:14:00;;;;;;;3.20;0.70;;;;;;;;;;5016355;28;20046;-66
2021/09/29 15:26:47;;;;;;;1.58;0.52;;;;;;;;;;5020698;28;20033;-64
2021/09/29 15:29:38;;;;;;;1.42;0.47;;;;;;;;;;5012851;28;20094;-65
2021/09/29 15:32:27;;;;;;;1.95;0.60;;;;;;;;;;5035794;28;20095;-64
2021/09/29 15:48:49;;;;;;;1.55;0.52;;;;;;;;;;5093761;28;20052;-65
2021/09/29 15:51:21;;;;;;;1.83;0.52;;;;;;;;;;5093675;28;20037;-65
2021/09/29 16:01:49;;;;;;;3.00;0.70;;;;;;;;;;5084576;28;20408;-65
2021/09/29 16:12:34;;;;;;;2.88;0.65;;;;;;;;;;5078716;28;20037;-64
2021/09/29 16:18:04;;;;;;;2.42;0.70;;;;;;;;;;5077739;28;20100;-64
2021/09/29 16:31:33;;;;;;;8.30;0.70;;;;;;;;;;5072617;28;20046;-64
2021/09/29 16:34:21;;;;;;;2.40;0.60;;;;;;;;;;5072744;28;20044;-66
2021/09/29 16:36:46;;;;;;;5.18;1.00;;;;;;;;;;5072830;28;20055;-66
2021/09/29 16:39:12;;;;;;;2.15;0.65;;;;;;;;;;5073049;28;22032;-64
2021/09/29 16:41:39;;;;;;;4.68;0.65;;;;;;;;;;5072898;28;20049;-64
2021/09/29 16:44:06;;;;;;;2.15;0.60;;;;;;;;;;5069300;28;20036;-64
2021/09/29 16:46:34;;;;;;;1.67;0.40;;;;;;;;;;5071166;28;20032;-65
2021/09/29 16:49:00;;;;;;;9.35;0.77;;;;;;;;;;5072609;28;20796;-64
2021/09/29 16:51:42;;;;;;;1.02;0.40;;;;;;;;;;5072367;28;20037;-64
2021/09/29 16:54:11;;;;;;;2.47;0.50;;;;;;;;;;5073748;28;20415;-65
2021/09/29 16:56:39;;;;;;;1.70;0.50;;;;;;;;;;5071679;28;20032;-64
2021/09/29 17:02:04;;;;;;;1.08;0.40;;;;;;;;;;5039892;28;20072;-64
2021/09/29 17:04:30;;;;;;;0.47;0.30;;;;;;;;;;5073822;28;20070;-63
2021/09/29 17:06:56;;;;;;;2.22;0.38;;;;;;;;;;5077125;28;21098;-64
2021/09/29 17:09:22;;;;;;;1.15;0.40;;;;;;;;;;5075371;28;20042;-64
2021/09/29 17:11:49;;;;;;;0.45;0.30;;;;;;;;;;5075338;28;20120;-64
2021/09/29 17:14:15;;;;;;;1.45;0.40;;;;;;;;;;5074731;28;20032;-65
2021/09/29 17:16:42;;;;;;;2.45;0.45;;;;;;;;;;5073494;28;20042;-64
2021/09/29 17:19:08;;;;;;;3.47;0.50;;;;;;;;;;5073110;28;20105;-65
2021/09/29 17:21:36;;;;;;;2.42;0.50;;;;;;;;;;5072863;28;20166;-64
2021/09/29 17:24:02;;;;;;;8.68;0.90;;;;;;;;;;5076446;28;20105;-65
2021/09/29 17:26:27;;;;;;;2.42;0.60;;;;;;;;;;5072584;28;20110;-64
2021/09/29 17:28:56;;;;;;;1.92;0.43;;;;;;;;;;5074969;28;20044;-65
2021/09/29 17:31:29;;;;;;;1.15;0.50;;;;;;;;;;5076176;28;20096;-67
2021/09/29 17:34:00;;;;;;;3.65;0.50;;;;;;;;;;5077065;28;20044;-65
2021/09/29 17:36:38;;;;;;;2.60;0.63;;;;;;;;;;5056959;28;20096;-65
2021/09/29 17:39:32;;;;;;;1.38;0.50;;;;;;;;;;5072959;28;21123;-65
2021/09/29 17:53:00;;;;;;;4.90;0.63;;;;;;;;;;5056534;28;20070;-65
2021/09/29 17:55:26;;;;;;;1.80;0.50;;;;;;;;;;5074419;28;20047;-65
2021/09/29 17:57:52;;;;;;;3.92;0.55;;;;;;;;;;5070409;28;20059;-64
2021/09/29 18:00:18;;;;;;;1.05;0.40;;;;;;;;;;5070401;28;20961;-64
2021/09/29 18:02:53;;;;;;;2.85;0.55;;;;;;;;;;5073053;28;20101;-65
2021/09/29 18:08:08;;;;;;;0.85;0.40;;;;;;;;;;5036938;28;20059;-66
2021/09/29 18:10:35;;;;;;;1.23;0.30;;;;;;;;;;5054333;28;20070;-65
2021/09/29 18:13:01;;;;;;;0.98;0.40;;;;;;;;;;5073873;28;20049;-65
2021/09/29 18:15:27;;;;;;;5.72;0.47;;;;;;;;;;5072705;28;20094;-66
2021/09/29 18:17:53;;;;;;;2.17;0.30;;;;;;;;;;5071685;28;20119;-65
2021/09/29 18:20:19;;;;;;;1.65;0.43;;;;;;;;;;5072061;28;20049;-65
2021/09/29 18:22:45;;;;;;;1.10;0.40;;;;;;;;;;5073339;28;20060;-65
2021/09/29 18:25:12;;;;;;;1.00;0.43;;;;;;;;;;5074686;28;20368;-64
2021/09/29 18:27:38;;;;;;;2.17;0.40;;;;;;;;;;5072088;28;20043;-65
2021/09/29 18:30:10;;;;;;;0.90;0.40;;;;;;;;;;5071908;28;20051;-65
2021/09/29 18:32:37;;;;;;;0.47;0.30;;;;;;;;;;5070922;28;20032;-65
2021/09/29 18:35:03;;;;;;;0.55;0.30;;;;;;;;;;5051925;28;20037;-65
2021/09/29 18:37:29;;;;;;;6.68;0.52;;;;;;;;;;5072691;28;20048;-66
2021/09/29 18:39:56;;;;;;;0.80;0.30;;;;;;;;;;5072195;28;20044;-66
2021/09/29 18:42:22;;;;;;;2.00;0.40;;;;;;;;;;5073239;28;20036;-65
2021/09/29 18:44:48;;;;;;;0.75;0.40;;;;;;;;;;5052360;28;20044;-64